createdAt,value
2024-02-24T00:01:59.144Z,2.60
2024-02-24T00:04:27.244Z,2.60
2024-02-24T00:06:55.274Z,2.60
2024-02-24T00:09:24.621Z,2.50
2024-02-24T00:11:52.820Z,2.50
2024-02-24T00:14:20.957Z,2.50
2024-02-24T00:16:49.036Z,2.60
2024-02-24T00:19:17.536Z,2.50
2024-02-24T00:21:45.576Z,2.60
2024-02-24T00:24:13.632Z,2.50
2024-02-24T00:26:43.179Z,2.50
2024-02-24T00:29:11.244Z,2.50
2024-02-24T00:31:39.662Z,2.60
2024-02-24T00:34:07.756Z,2.50
2024-02-24T00:36:36.601Z,2.50
2024-02-24T00:39:04.650Z,2.50
2024-02-24T00:41:32.774Z,2.60
2024-02-24T00:44:02.240Z,2.60
2024-02-24T00:46:30.308Z,2.50
2024-02-24T00:48:58.268Z,2.50
2024-02-24T00:51:26.355Z,2.50
2024-02-24T00:53:54.452Z,2.40
2024-02-24T00:56:23.466Z,2.40
2024-02-24T00:58:53.577Z,2.40
2024-02-24T01:01:22.989Z,2.30
2024-02-24T01:03:50.989Z,2.30
2024-02-24T01:06:19.024Z,2.30
2024-02-24T01:08:47.115Z,2.20
2024-02-24T01:11:15.644Z,2.20
2024-02-24T01:13:44.629Z,2.10
2024-02-24T01:16:13.071Z,2.10
2024-02-24T01:18:42.888Z,2.10
2024-02-24T01:21:10.982Z,2.00
2024-02-24T01:23:40.788Z,2.00
2024-02-24T01:26:08.908Z,1.90
2024-02-24T01:28:37.982Z,1.90
2024-02-24T01:31:06.291Z,2.00
2024-02-24T01:33:34.401Z,1.90
2024-02-24T01:36:03.873Z,1.90
2024-02-24T01:38:31.952Z,1.80
2024-02-24T01:40:59.943Z,1.70
2024-02-24T01:43:30.487Z,1.70
2024-02-24T01:45:58.894Z,1.70
2024-02-24T01:48:26.979Z,1.60
2024-02-24T01:50:58.581Z,1.60
2024-02-24T01:53:29.571Z,1.60
2024-02-24T01:55:58.322Z,1.50
2024-02-24T01:58:27.395Z,1.50
2024-02-24T02:00:55.490Z,1.50
2024-02-24T02:03:23.931Z,1.50
2024-02-24T02:05:52.151Z,1.40
2024-02-24T02:08:20.304Z,1.40
2024-02-24T02:10:52.763Z,1.40
2024-02-24T02:13:21.115Z,1.40
2024-02-24T02:15:51.740Z,1.30
2024-02-24T02:18:20.022Z,1.30
2024-02-24T02:20:50.981Z,1.30
2024-02-24T02:23:20.692Z,1.20
2024-02-24T02:25:48.787Z,1.30
2024-02-24T02:28:16.844Z,1.30
2024-02-24T02:30:44.964Z,1.30
2024-02-24T02:33:12.980Z,1.30
2024-02-24T02:35:41.071Z,1.30
2024-02-24T02:38:11.543Z,1.30
2024-02-24T02:40:40.873Z,1.20
2024-02-24T02:43:08.839Z,1.30
2024-02-24T02:45:36.860Z,1.30
2024-02-24T02:48:05.495Z,1.30
2024-02-24T02:50:33.715Z,1.30
2024-02-24T02:53:01.697Z,1.30
2024-02-24T02:55:29.657Z,1.30
2024-02-24T02:57:59.016Z,1.30
2024-02-24T03:00:27.045Z,1.30
2024-02-24T03:02:55.209Z,1.30
2024-02-24T03:05:23.361Z,1.30
2024-02-24T03:07:51.478Z,1.10
2024-02-24T03:10:19.663Z,1.10
2024-02-24T03:12:47.663Z,1.10
2024-02-24T03:15:17.215Z,1.10
2024-02-24T03:17:45.286Z,1.10
2024-02-24T03:20:15.943Z,1.10
2024-02-24T03:22:44.856Z,1.10
2024-02-24T03:25:12.847Z,1.10
2024-02-24T03:27:40.854Z,1.10
2024-02-24T03:30:10.146Z,1.10
2024-02-24T03:32:39.574Z,1.10
2024-02-24T03:35:08.940Z,1.00
2024-02-24T03:37:36.954Z,1.00
2024-02-24T03:40:07.388Z,1.00
2024-02-24T03:42:35.503Z,0.90
2024-02-24T03:45:04.331Z,0.90
2024-02-24T03:47:32.451Z,0.90
2024-02-24T03:50:01.872Z,0.90
2024-02-24T03:52:30.152Z,0.90
2024-02-24T03:54:59.322Z,0.90
2024-02-24T03:57:27.250Z,0.90
2024-02-24T03:59:56.256Z,0.90
2024-02-24T04:02:24.600Z,0.90
2024-02-24T04:04:53.325Z,1.00
2024-02-24T04:07:22.915Z,1.00
2024-02-24T04:09:50.918Z,1.00
2024-02-24T04:12:19.188Z,1.00
2024-02-24T04:14:47.542Z,0.90
2024-02-24T04:17:15.556Z,0.90
2024-02-24T04:19:43.564Z,0.90
2024-02-24T04:22:11.560Z,0.80
2024-02-24T04:24:42.176Z,0.80
2024-02-24T04:27:10.174Z,0.80
2024-02-24T04:29:38.313Z,0.80
2024-02-24T04:32:06.834Z,0.80
2024-02-24T04:34:37.074Z,0.80
2024-02-24T04:37:05.282Z,0.90
2024-02-24T04:39:33.249Z,0.90
2024-02-24T04:42:02.553Z,0.90
2024-02-24T04:44:30.735Z,0.90
2024-02-24T04:46:58.818Z,0.90
2024-02-24T04:49:26.842Z,0.90
2024-02-24T04:51:54.841Z,0.90
2024-02-24T04:54:24.303Z,0.80
2024-02-24T04:56:52.440Z,0.80
2024-02-24T04:59:21.946Z,0.70
2024-02-24T05:01:49.976Z,0.70
2024-02-24T05:04:18.048Z,0.70
2024-02-24T05:06:46.166Z,0.70
2024-02-24T05:09:14.349Z,0.70
2024-02-24T05:11:42.812Z,0.70
2024-02-24T05:14:10.872Z,0.60
2024-02-24T05:16:42.801Z,0.50
2024-02-24T05:19:11.060Z,0.50
2024-02-24T05:21:39.293Z,0.40
2024-02-24T05:24:08.236Z,0.40
2024-02-24T05:26:36.239Z,0.30
2024-02-24T05:29:04.389Z,0.30
2024-02-24T05:31:32.334Z,0.30
2024-02-24T05:34:02.295Z,0.20
2024-02-24T05:36:32.349Z,0.20
2024-02-24T05:39:00.425Z,0.10
2024-02-24T05:41:28.504Z,0.20
2024-02-24T05:43:56.466Z,0.10
2024-02-24T05:46:24.447Z,-0.10
2024-02-24T05:48:52.547Z,-0.10
2024-02-24T05:51:22.662Z,0.00
2024-02-24T05:53:51.114Z,0.10
2024-02-24T05:56:19.448Z,0.10
2024-02-24T05:58:47.438Z,0.10
2024-02-24T06:01:16.221Z,0.10
2024-02-24T06:03:44.456Z,0.00
2024-02-24T06:06:12.665Z,0.00
2024-02-24T06:08:42.167Z,0.00
2024-02-24T06:11:10.270Z,0.10
2024-02-24T06:13:38.268Z,0.20
2024-02-24T06:16:06.814Z,0.30
2024-02-24T06:18:35.080Z,0.30
2024-02-24T06:21:04.234Z,0.30
2024-02-24T06:23:32.432Z,0.20
2024-02-24T06:26:01.987Z,0.20
2024-02-24T06:28:29.978Z,0.20
2024-02-24T06:30:58.868Z,0.10
2024-02-24T06:33:27.002Z,0.10
2024-02-24T06:35:55.197Z,0.10
2024-02-24T06:38:23.307Z,0.10
2024-02-24T06:40:51.386Z,0.20
2024-02-24T06:43:20.750Z,0.30
2024-02-24T06:45:48.785Z,0.40
2024-02-24T06:48:18.322Z,0.30
2024-02-24T06:50:46.457Z,0.30
2024-02-24T06:53:14.805Z,0.30
2024-02-24T06:55:43.173Z,0.40
2024-02-24T06:58:11.202Z,0.60
2024-02-24T07:00:40.597Z,0.70
2024-02-24T07:03:08.749Z,0.80
2024-02-24T07:05:36.788Z,0.90
2024-02-24T07:08:05.317Z,1.00
2024-02-24T07:10:33.303Z,1.10
2024-02-24T07:13:01.262Z,1.10
2024-02-24T07:15:29.366Z,1.10
2024-02-24T07:17:58.916Z,1.20
2024-02-24T07:20:27.055Z,1.20
2024-02-24T07:22:55.102Z,1.30
2024-02-24T07:25:23.051Z,1.40
2024-02-24T07:27:51.291Z,1.50
2024-02-24T07:30:19.349Z,1.70
2024-02-24T07:32:47.874Z,1.80
2024-02-24T07:35:17.379Z,2.10
2024-02-24T07:37:45.409Z,2.50
2024-02-24T07:40:14.234Z,2.80
2024-02-24T07:42:42.165Z,3.20
2024-02-24T07:45:10.751Z,3.50
2024-02-24T07:47:39.074Z,3.80
2024-02-24T07:50:08.920Z,4.20
2024-02-24T07:52:39.192Z,4.60
2024-02-24T07:55:08.303Z,5.40
2024-02-24T07:57:36.274Z,6.50
2024-02-24T08:00:05.949Z,8.10
2024-02-24T08:02:34.185Z,9.50
2024-02-24T08:05:02.400Z,10.80
2024-02-24T08:07:30.485Z,12.10
2024-02-24T08:09:59.903Z,12.70
2024-02-24T08:12:28.182Z,13.70
2024-02-24T08:14:56.560Z,14.20
2024-02-24T08:17:24.662Z,14.50
2024-02-24T08:19:52.680Z,14.60
2024-02-24T08:22:20.658Z,15.30
2024-02-24T08:24:48.676Z,16.00
2024-02-24T08:27:18.099Z,16.00
2024-02-24T08:29:46.206Z,15.70
2024-02-24T08:32:14.370Z,15.40
2024-02-24T08:34:42.412Z,15.60
2024-02-24T08:37:10.440Z,15.50
2024-02-24T08:39:38.464Z,16.50
2024-02-24T08:42:06.926Z,17.40
2024-02-24T08:44:36.354Z,18.20
2024-02-24T08:47:04.786Z,17.70
2024-02-24T08:49:32.882Z,19.20
2024-02-24T08:52:00.891Z,19.10
2024-02-24T08:54:28.851Z,19.90
2024-02-24T08:56:56.910Z,19.50
2024-02-24T08:59:24.975Z,17.10
2024-02-24T09:01:55.299Z,15.60
2024-02-24T09:04:23.380Z,14.80
2024-02-24T09:06:51.582Z,14.80
2024-02-24T09:09:19.675Z,14.50
2024-02-24T09:11:48.729Z,13.60
2024-02-24T09:14:17.011Z,13.30
2024-02-24T09:16:45.044Z,13.20
2024-02-24T09:19:14.499Z,13.50
2024-02-24T09:21:45.890Z,13.70
2024-02-24T09:24:13.882Z,14.30
2024-02-24T09:26:41.916Z,15.30
2024-02-24T09:29:10.070Z,15.00
2024-02-24T09:31:38.794Z,15.30
2024-02-24T09:34:07.589Z,15.80
2024-02-24T09:36:41.186Z,16.40
2024-02-24T09:39:09.250Z,16.90
2024-02-24T09:41:37.301Z,17.10
2024-02-24T09:44:06.466Z,17.50
2024-02-24T09:46:37.682Z,17.40
2024-02-24T09:49:06.792Z,17.10
2024-02-24T09:51:36.346Z,17.30
2024-02-24T09:54:06.037Z,17.50
2024-02-24T09:56:36.084Z,18.30
2024-02-24T09:59:05.514Z,18.30
2024-02-24T10:01:37.089Z,18.60
2024-02-24T10:04:05.503Z,18.30
2024-02-24T10:06:36.169Z,17.70
2024-02-24T10:09:05.747Z,18.20
2024-02-24T10:11:35.402Z,18.50
2024-02-24T10:14:03.460Z,18.50
2024-02-24T10:16:31.522Z,18.50
2024-02-24T10:19:02.431Z,18.70
2024-02-24T10:21:30.739Z,18.50
2024-02-24T10:23:58.926Z,18.90
2024-02-24T10:26:29.111Z,19.20
2024-02-24T10:28:57.412Z,20.00
2024-02-24T10:31:28.242Z,20.30
2024-02-24T10:33:56.843Z,19.00
2024-02-24T10:36:27.727Z,18.30
2024-02-24T10:38:56.767Z,17.70
2024-02-24T10:41:27.102Z,17.30
2024-02-24T10:44:10.561Z,17.00
2024-02-24T10:46:46.768Z,16.50
2024-02-24T10:49:14.948Z,16.00
2024-02-24T10:51:47.463Z,15.80
2024-02-24T10:54:21.744Z,17.10
2024-02-24T10:56:55.395Z,18.60
2024-02-24T10:59:30.794Z,19.10
2024-02-24T11:02:03.858Z,19.20
2024-02-24T11:04:35.952Z,19.70
2024-02-24T11:07:07.285Z,20.40
2024-02-24T11:09:37.340Z,19.10
2024-02-24T11:12:11.057Z,18.90
2024-02-24T11:14:42.424Z,20.50
2024-02-24T11:17:12.781Z,20.90
2024-02-24T11:19:48.893Z,20.60
2024-02-24T11:22:20.584Z,21.00
2024-02-24T11:25:01.232Z,20.30
2024-02-24T11:27:32.997Z,19.20
2024-02-24T11:30:40.613Z,17.60
2024-02-24T11:33:23.664Z,16.50
2024-02-24T11:35:54.938Z,17.00
2024-02-24T11:38:27.471Z,18.30
2024-02-24T11:40:56.053Z,18.80
2024-02-24T11:43:24.110Z,18.10
2024-02-24T11:45:55.407Z,18.60
2024-02-24T11:48:24.639Z,19.00
2024-02-24T11:50:54.409Z,20.30
2024-02-24T11:53:22.627Z,19.60
2024-02-24T11:55:51.109Z,19.30
2024-02-24T11:58:19.488Z,20.90
2024-02-24T12:00:47.646Z,21.50
2024-02-24T12:03:18.047Z,21.90
2024-02-24T12:05:47.111Z,21.20
2024-02-24T12:08:18.673Z,20.50
2024-02-24T12:10:47.205Z,20.20
2024-02-24T12:13:16.070Z,19.60
2024-02-24T12:15:47.915Z,19.00
2024-02-24T12:18:17.485Z,18.70
2024-02-24T12:20:49.268Z,17.70
2024-02-24T12:23:18.616Z,17.00
2024-02-24T12:25:48.518Z,16.40
2024-02-24T12:28:17.419Z,16.20
2024-02-24T12:30:46.725Z,15.50
2024-02-24T12:33:19.115Z,16.20
2024-02-24T12:35:49.983Z,16.70
2024-02-24T12:38:18.723Z,16.90
2024-02-24T12:40:47.292Z,16.90
2024-02-24T12:43:15.675Z,16.20
2024-02-24T12:45:43.674Z,15.40
2024-02-24T12:48:12.178Z,14.30
2024-02-24T12:50:42.986Z,13.50
2024-02-24T12:53:11.541Z,13.50
2024-02-24T12:55:39.622Z,13.20
2024-02-24T12:58:07.678Z,13.30
2024-02-24T13:00:35.678Z,13.10
2024-02-24T13:03:04.198Z,13.10
2024-02-24T13:05:32.384Z,13.30
2024-02-24T13:08:01.936Z,14.00
2024-02-24T13:10:29.926Z,14.30
2024-02-24T13:13:00.166Z,14.10
2024-02-24T13:15:29.736Z,14.30
2024-02-24T13:17:57.840Z,14.70
2024-02-24T13:20:26.073Z,14.10
2024-02-24T13:22:54.082Z,14.40
2024-02-24T13:25:24.099Z,14.50
2024-02-24T13:27:52.152Z,13.80
2024-02-24T13:30:21.936Z,13.40
2024-02-24T13:32:50.673Z,13.60
2024-02-24T13:35:18.831Z,13.80
2024-02-24T13:37:46.912Z,13.10
2024-02-24T13:40:15.198Z,13.20
2024-02-24T13:42:45.528Z,13.40
2024-02-24T13:45:13.603Z,12.70
2024-02-24T13:47:41.629Z,11.90
2024-02-24T13:50:13.112Z,12.00
2024-02-24T13:52:41.128Z,11.40
2024-02-24T13:55:09.663Z,11.70
2024-02-24T13:57:37.815Z,11.50
2024-02-24T14:00:12.111Z,11.40
2024-02-24T14:02:44.165Z,11.40
2024-02-24T14:05:13.998Z,11.20
2024-02-24T14:07:42.491Z,11.10
2024-02-24T14:10:11.024Z,10.90
2024-02-24T14:12:39.473Z,11.20
2024-02-24T14:15:11.373Z,11.60
2024-02-24T14:17:39.694Z,11.30
2024-02-24T14:20:19.542Z,11.20
2024-02-24T14:22:53.217Z,11.60
2024-02-24T14:25:21.294Z,11.60
2024-02-24T14:27:50.845Z,11.40
2024-02-24T14:30:20.451Z,11.10
2024-02-24T14:32:48.733Z,10.80
2024-02-24T14:35:22.907Z,10.70
2024-02-24T14:37:50.906Z,10.40
2024-02-24T14:40:19.521Z,10.30
2024-02-24T14:42:48.441Z,10.40
2024-02-24T14:45:18.732Z,10.40
2024-02-24T14:47:48.202Z,10.20
2024-02-24T14:50:16.344Z,10.20
2024-02-24T14:52:44.433Z,10.20
2024-02-24T14:55:13.139Z,10.30
2024-02-24T14:57:41.225Z,10.20
2024-02-24T15:00:14.252Z,10.20
2024-02-24T15:02:52.265Z,10.30
2024-02-24T15:05:29.217Z,10.50
2024-02-24T15:07:58.201Z,10.30
2024-02-24T15:10:26.252Z,10.10
2024-02-24T15:12:54.266Z,10.10
2024-02-24T15:15:22.324Z,10.40
2024-02-24T15:17:53.619Z,10.40
2024-02-24T15:20:21.222Z,10.10
2024-02-24T15:22:52.018Z,9.90
2024-02-24T15:25:20.395Z,9.80
2024-02-24T15:27:48.537Z,9.80
2024-02-24T15:30:19.096Z,9.90
2024-02-24T15:32:47.130Z,10.10
2024-02-24T15:35:15.309Z,10.00
2024-02-24T15:37:44.503Z,9.60
2024-02-24T15:40:14.557Z,9.40
2024-02-24T15:42:42.601Z,9.30
2024-02-24T15:45:10.978Z,9.20
2024-02-24T15:47:39.255Z,9.10
2024-02-24T15:50:08.331Z,9.00
2024-02-24T15:52:39.746Z,9.00
2024-02-24T15:55:08.627Z,8.80
2024-02-24T15:57:38.942Z,9.00
2024-02-24T16:00:08.626Z,8.90
2024-02-24T16:02:37.137Z,8.70
2024-02-24T16:05:05.527Z,8.60
2024-02-24T16:07:33.513Z,8.40
2024-02-24T16:10:01.515Z,8.40
2024-02-24T16:12:29.908Z,8.30
2024-02-24T16:14:59.389Z,8.30
2024-02-24T16:17:27.957Z,8.20
2024-02-24T16:19:56.068Z,8.20
2024-02-24T16:22:24.485Z,8.10
2024-02-24T16:24:52.551Z,8.10
2024-02-24T16:27:20.545Z,8.00
2024-02-24T16:29:48.558Z,7.90
2024-02-24T16:32:18.006Z,7.90
2024-02-24T16:34:47.174Z,7.80
2024-02-24T16:37:15.553Z,7.70
2024-02-24T16:39:43.578Z,7.70
2024-02-24T16:42:11.573Z,7.70
2024-02-24T16:44:39.582Z,7.60
2024-02-24T16:47:07.680Z,7.60
2024-02-24T16:49:37.067Z,7.50
2024-02-24T16:52:06.191Z,7.50
2024-02-24T16:54:36.597Z,7.50
2024-02-24T16:57:06.719Z,7.50
2024-02-24T16:59:34.852Z,7.40
2024-02-24T17:02:04.787Z,7.30
2024-02-24T17:04:33.065Z,7.40
2024-02-24T17:07:04.289Z,7.40
2024-02-24T17:09:33.750Z,7.30
2024-02-24T17:12:03.791Z,7.30
2024-02-24T17:14:32.101Z,7.20
2024-02-24T17:17:00.209Z,7.20
2024-02-24T17:19:28.405Z,7.10
2024-02-24T17:21:56.449Z,7.10
2024-02-24T17:24:25.844Z,7.00
2024-02-24T17:26:56.331Z,7.00
2024-02-24T17:29:25.872Z,7.00
2024-02-24T17:31:53.945Z,7.00
2024-02-24T17:34:22.358Z,7.00
2024-02-24T17:36:50.668Z,7.00
2024-02-24T17:39:21.172Z,6.90
2024-02-24T17:41:51.882Z,6.90
2024-02-24T17:44:20.828Z,6.90
2024-02-24T17:46:48.972Z,6.70
2024-02-24T17:49:17.516Z,6.80
2024-02-24T17:51:45.582Z,6.80
2024-02-24T17:54:13.619Z,6.80
2024-02-24T17:56:41.808Z,6.70
2024-02-24T17:59:11.149Z,6.70
2024-02-24T18:01:39.209Z,6.70
2024-02-24T18:04:07.291Z,6.80
2024-02-24T18:06:35.478Z,6.80
2024-02-24T18:09:03.683Z,6.60
2024-02-24T18:11:32.961Z,6.60
2024-02-24T18:14:01.009Z,6.40
2024-02-24T18:16:30.364Z,6.40
2024-02-24T18:18:58.510Z,6.40
2024-02-24T18:21:26.576Z,6.40
2024-02-24T18:23:54.902Z,6.40
2024-02-24T18:26:22.981Z,6.40
2024-02-24T18:28:50.989Z,6.40
2024-02-24T18:31:19.013Z,6.40
2024-02-24T18:33:48.575Z,6.30
2024-02-24T18:36:16.901Z,6.30
2024-02-24T18:38:48.974Z,6.20
2024-02-24T18:41:17.053Z,6.20
2024-02-24T18:43:45.455Z,6.20
2024-02-24T18:46:13.684Z,6.10
2024-02-24T18:48:42.038Z,6.10
2024-02-24T18:51:11.652Z,6.10
2024-02-24T18:53:40.829Z,6.10
2024-02-24T18:56:09.747Z,6.10
2024-02-24T18:58:37.938Z,6.10
2024-02-24T19:01:06.723Z,6.20
2024-02-24T19:03:34.867Z,6.20
2024-02-24T19:06:03.719Z,6.20
2024-02-24T19:08:33.302Z,6.20
2024-02-24T19:11:01.517Z,6.20
2024-02-24T19:13:29.549Z,6.20
2024-02-24T19:15:58.546Z,6.10
2024-02-24T19:18:26.680Z,5.90
2024-02-24T19:20:54.951Z,5.80
2024-02-24T19:23:23.458Z,5.70
2024-02-24T19:25:53.033Z,5.60
2024-02-24T19:28:21.109Z,5.70
2024-02-24T19:30:49.138Z,5.70
2024-02-24T19:33:17.850Z,5.80
2024-02-24T19:35:48.113Z,5.80
2024-02-24T19:38:16.225Z,5.80
2024-02-24T19:40:44.340Z,5.80
2024-02-24T19:43:14.069Z,5.70
2024-02-24T19:45:43.071Z,5.70
2024-02-24T19:48:12.393Z,5.70
2024-02-24T19:50:40.707Z,5.70
2024-02-24T19:53:08.983Z,5.70
2024-02-24T19:55:37.100Z,5.60
2024-02-24T19:58:14.072Z,5.40
2024-02-24T20:00:50.838Z,5.40
2024-02-24T20:03:18.820Z,5.50
2024-02-24T20:05:46.969Z,5.50
2024-02-24T20:08:15.143Z,5.50
2024-02-24T20:10:43.380Z,5.50
2024-02-24T20:13:11.669Z,5.50
2024-02-24T20:15:39.917Z,5.60
2024-02-24T20:18:09.443Z,5.60
2024-02-24T20:20:37.458Z,5.50
2024-02-24T20:23:05.973Z,5.50
2024-02-24T20:25:33.914Z,5.50
2024-02-24T20:28:03.880Z,5.50
2024-02-24T20:30:36.591Z,5.50
2024-02-24T20:33:05.110Z,5.50
2024-02-24T20:35:34.618Z,5.50
2024-02-24T20:38:02.696Z,5.50
2024-02-24T20:40:30.725Z,5.40
2024-02-24T20:42:59.011Z,5.40
2024-02-24T20:45:26.965Z,5.40
2024-02-24T20:47:55.076Z,5.40
2024-02-24T20:50:25.638Z,5.50
2024-02-24T20:52:57.390Z,5.50
2024-02-24T20:55:26.297Z,5.50
2024-02-24T20:57:55.178Z,5.50
2024-02-24T21:00:23.169Z,5.50
2024-02-24T21:02:51.707Z,5.50
2024-02-24T21:05:20.986Z,5.50
2024-02-24T21:07:51.935Z,5.40
2024-02-24T21:10:21.472Z,5.40
2024-02-24T21:12:49.620Z,5.40
2024-02-24T21:15:18.038Z,5.50
2024-02-24T21:17:46.107Z,5.50
2024-02-24T21:20:14.847Z,5.50
2024-02-24T21:22:44.268Z,5.60
2024-02-24T21:25:13.196Z,5.60
2024-02-24T21:27:42.844Z,5.50
2024-02-24T21:30:12.443Z,5.50
2024-02-24T21:32:41.017Z,5.50
2024-02-24T21:35:11.393Z,5.50
2024-02-24T21:37:39.745Z,5.50
2024-02-24T21:40:09.702Z,5.50
2024-02-24T21:42:40.725Z,5.60
2024-02-24T21:45:12.681Z,5.60
2024-02-24T21:47:43.220Z,5.50
2024-02-24T21:50:14.215Z,5.60
2024-02-24T21:52:42.330Z,5.60
2024-02-24T21:55:10.892Z,5.50
2024-02-24T21:57:42.455Z,5.40
2024-02-24T22:00:16.707Z,5.40
2024-02-24T22:02:46.537Z,5.40
2024-02-24T22:05:14.706Z,5.30
2024-02-24T22:07:42.784Z,5.30
2024-02-24T22:10:12.027Z,5.00
2024-02-24T22:12:40.651Z,5.20
2024-02-24T22:15:12.190Z,5.20
2024-02-24T22:17:42.871Z,5.10
2024-02-24T22:20:12.088Z,5.20
2024-02-24T22:22:40.084Z,5.40
2024-02-24T22:25:11.028Z,5.40
2024-02-24T22:27:39.360Z,5.40
2024-02-24T22:30:15.849Z,5.30
2024-02-24T22:32:46.623Z,5.50
2024-02-24T22:35:15.392Z,5.50
2024-02-24T22:37:44.747Z,5.40
2024-02-24T22:40:13.348Z,5.40
2024-02-24T22:42:42.417Z,5.30
2024-02-24T22:45:11.066Z,5.30
2024-02-24T22:47:39.362Z,5.30
2024-02-24T22:50:09.568Z,5.30
2024-02-24T22:52:42.272Z,5.40
2024-02-24T22:55:12.391Z,5.30
2024-02-24T22:57:40.463Z,5.40
2024-02-24T23:00:14.036Z,5.40
2024-02-24T23:02:42.314Z,5.40
2024-02-24T23:05:12.144Z,5.50
2024-02-24T23:07:40.216Z,5.50
2024-02-24T23:10:10.719Z,5.50
2024-02-24T23:12:39.465Z,5.50
2024-02-24T23:15:08.534Z,5.30
2024-02-24T23:17:36.831Z,5.20
2024-02-24T23:20:05.436Z,5.20
2024-02-24T23:22:34.826Z,5.20
2024-02-24T23:25:02.856Z,5.30
2024-02-24T23:27:31.681Z,5.30
2024-02-24T23:32:27.712Z,5.10
2024-02-24T23:34:55.776Z,5.00
2024-02-24T23:37:23.775Z,5.10
2024-02-24T23:39:53.108Z,5.10
2024-02-24T23:42:21.212Z,5.20
2024-02-24T23:44:49.224Z,5.20
2024-02-24T23:47:17.271Z,5.20
2024-02-24T23:49:45.320Z,5.20
2024-02-24T23:52:14.988Z,5.10
2024-02-24T23:54:43.765Z,5.00
2024-02-24T23:57:13.238Z,5.10
2024-02-24T23:59:41.303Z,5.00
